Time,TemperatureF,DewpointF,PressureIn,WindDirection,WindDirectionDegrees,WindSpeedMPH,WindSpeedGustMPH,Humidity,HourlyPrecipIn,Conditions,Clouds,dailyrainin,SolarRadiationWatts/m^2,SoftwareType,DateUTC
2013-01-30 00:00:00,51.0,49.0,-100.00,WSW,247,3.0,-999.0,93,0.03,,,-99.99,0.000000,,2013-01-30 05:00:00,
2013-01-30 00:32:00,51.0,49.0,-100.00,WSW,247,3.0,-999.0,93,0.03,,,-99.99,0.000000,,2013-01-30 05:32:00,
2013-01-30 00:43:00,51.0,49.0,-100.00,WSW,247,3.0,-999.0,93,0.03,,,-99.99,0.000000,,2013-01-30 05:43:00,
2013-01-30 00:52:00,51.0,49.0,-100.00,WSW,247,3.0,-999.0,93,0.03,,,-99.99,0.000000,,2013-01-30 05:52:00,
2013-01-30 03:00:00,47.0,46.0,-100.00,ENE,67,1.0,-999.0,93,0.10,,,-99.99,0.000000,,2013-01-30 08:00:00,
2013-01-30 03:42:00,47.0,46.0,-100.00,ENE,67,1.0,-999.0,93,0.10,,,-99.99,0.000000,,2013-01-30 08:42:00,
2013-01-30 03:52:00,47.0,46.0,-100.00,ENE,67,1.0,-999.0,93,0.10,,,-99.99,0.000000,,2013-01-30 08:52:00,
2013-01-30 06:00:00,42.0,40.0,-100.00,NW,315,4.0,-999.0,93,0.01,,,-99.99,0.000000,,2013-01-30 11:00:00,
2013-01-30 06:42:00,42.0,40.0,-100.00,NW,315,4.0,-999.0,93,0.01,,,-99.99,0.000000,,2013-01-30 11:42:00,
2013-01-30 06:52:00,42.0,40.0,-100.00,NW,315,4.0,-999.0,93,0.01,,,-99.99,0.000000,,2013-01-30 11:52:00,
2013-01-30 09:00:00,38.0,36.0,-100.00,WNW,292,5.0,-999.0,93,-99.99,,,-99.99,8.120000,,2013-01-30 14:00:00,
2013-01-30 09:43:00,38.0,36.0,-100.00,WNW,292,5.0,-999.0,93,-99.99,,,-99.99,8.120000,,2013-01-30 14:43:00,
2013-01-30 09:53:00,38.0,36.0,-100.00,WNW,292,5.0,-999.0,93,-99.99,,,-99.99,8.120000,,2013-01-30 14:53:00,
2013-01-30 12:00:00,40.0,38.0,-100.00,South,180,1.0,-999.0,94,-99.99,,,-99.99,91.639999,,2013-01-30 17:00:00,
2013-01-30 12:43:00,40.0,38.0,-100.00,South,180,1.0,-999.0,94,-99.99,,,-99.99,91.639999,,2013-01-30 17:43:00,
2013-01-30 12:53:00,40.0,38.0,-100.00,South,180,1.0,-999.0,94,-99.99,,,-99.99,91.639999,,2013-01-30 17:53:00,
2013-01-30 15:00:00,47.0,44.0,-100.00,SSW,202,14.0,-999.0,88,-99.99,,,-99.99,89.320000,,2013-01-30 20:00:00,
2013-01-30 15:42:00,47.0,44.0,-100.00,SSW,202,14.0,-999.0,88,-99.99,,,-99.99,89.320000,,2013-01-30 20:42:00,
2013-01-30 15:53:00,47.0,44.0,-100.00,SSW,202,14.0,-999.0,88,-99.99,,,-99.99,89.320000,,2013-01-30 20:53:00,
2013-01-30 18:00:00,36.0,34.0,-100.00,WNW,292,10.0,-999.0,92,0.01,,,-99.99,5.800000,,2013-01-30 23:00:00,
2013-01-30 18:42:00,36.0,34.0,-100.00,WNW,292,10.0,-999.0,92,0.01,,,-99.99,5.800000,,2013-01-30 23:42:00,
2013-01-30 18:52:00,36.0,34.0,-100.00,WNW,292,10.0,-999.0,92,0.01,,,-99.99,5.800000,,2013-01-30 23:52:00,
2013-01-30 21:00:00,28.0,26.0,-100.00,NW,315,15.0,-999.0,92,-99.99,,,-99.99,0.000000,,2013-01-31 02:00:00,